YPLM

Learmonth Airport

Exmouth, Australia
TAF AMD YPLM 142057Z 1420/1518 22014KT 9999 SCT015 FM150000 21014KT 9999 SCT020 FM150300 23018KT CAVOK FM151500 22014KT CAVOK
Issued Valid From Valid To
Dec-14 @ 20:57 UTC
(52 minutes ago)
Dec-14 @ 20:00 UTC
(2 hours ago)
Dec-15 @ 18:00 UTC
(in 20 hours)
Dec-14 @ 20:00 to Dec-15 @ 00:00
TAF AMD YPLM 142057Z 1420/1518 22014KT 9999 SCT015
Wind Visibility Clouds
220° at 14 knots 10,000+ meters
  • Scattered at 1,500' AGL
From Dec-15 @ 00:00 to Dec-15 @ 03:00
FM150000 21014KT 9999 SCT020
Wind Visibility Clouds
210° at 14 knots 10,000+ meters
  • Scattered at 2,000' AGL
From Dec-15 @ 03:00 to Dec-15 @ 15:00
FM150300 23018KT CAVOK
Wind Visibility Clouds Conditions
230° at 18 knots 10,000+ meters
  • No significant clouds
From Dec-15 @ 15:00 to Dec-15 @ 18:00
FM151500 22014KT CAVOK
Wind Visibility Clouds Conditions
220° at 14 knots 10,000+ meters
  • No significant clouds
TAF AMD YPLM 142057Z 1420/1518 22014KT 9999 SCT015 FM150000 21014KT 9999 SCT020 FM150300 23018KT CAVOK FM151500 22014KT CAVOK
Issued Dec-14 @ 20:57 UTC
(52 minutes ago)
Valid From Dec-14 @ 20:00 UTC
(2 hours ago)
Valid To Dec-15 @ 18:00 UTC
(in 20 hours)
Dec-14 @ 20:00 - Dec-15 @ 00:00
Wind Visibility
220° at 14 knots 10,000+ meters
Clouds
  • Scattered at 1,500' AGL
From Dec-15 @ 00:00 - Dec-15 @ 03:00
Wind Visibility
210° at 14 knots 10,000+ meters
Clouds
  • Scattered at 2,000' AGL
From Dec-15 @ 03:00 - Dec-15 @ 15:00
Wind Visibility
230° at 18 knots 10,000+ meters
Clouds
  • No significant clouds
Conditions
From Dec-15 @ 15:00 - Dec-15 @ 18:00
Wind Visibility
220° at 14 knots 10,000+ meters
Clouds
  • No significant clouds
Conditions